• Join FlightAware (Why Join?)
  • Login
  • US Flag 
03:01AM EDT


 

Airport Tracker/Info


-or-


 

Live Flight TrackerFlight Track Log ✈ N75746 ✈ 27-Apr-2013 ✈ KOSU - KOSU

Flight Track Log - Related Links

Times and Time Zones

All times are in EDT time to prevent confusion due to time zone crossing. See the N75746 flight status page for this flight to view local times or setup timezone preferences in your user account.

Time Position Orientation Groundspeed Altitude Reporting Facility
EDT Latitude Longitude Course Direction KTS MPH feet Rate Location/Type
08:23PM 40.0769 -83.0767 265° West 62 71 1,100  Level Indianapolis Center
08:23PM 40.0764 -83.0847 265° West 72 83 1,300 660 Climbing Indianapolis Center
08:25PM 40.0636 -83.1078 234° Southwest 65 75 2,200 600 Climbing Indianapolis Center
08:26PM 40.0478 -83.1183 207° Southwest 65 75 2,800 480 Climbing Indianapolis Center
08:26PM 40.0306 -83.1122 165° South 77 89 3,100 240 Climbing Indianapolis Center
08:27PM 40.0292 -83.1128 197° South 68 78 3,100 -120 Level Indianapolis Center
08:27PM 40.0075 -83.1150 184° South 96 110 3,000 -120 Descending Indianapolis Center
08:28PM 39.9992 -83.1144 177° South 79 91 3,000  Level Indianapolis Center
08:28PM 39.9822 -83.1147 181° South 87 100 3,000  Level Indianapolis Center
08:29PM 39.9761 -83.1158 188° South 88 101 3,000  Level Indianapolis Center
08:30PM 39.9550 -83.1169 182° South 84 97 3,000  Level Indianapolis Center
08:30PM 39.9522 -83.1158 163° South 88 101 3,000  Level Indianapolis Center
08:31PM 39.9317 -83.1197 188° South 85 98 3,000 -120 Level Indianapolis Center
08:31PM 39.9283 -83.1183 162° South 85 98 2,900 -120 Descending Indianapolis Center
08:32PM 39.9086 -83.1197 183° South 83 96 2,900 60 Level Indianapolis Center
08:32PM 39.9042 -83.1194 177° South 86 99 3,000 60 Climbing Indianapolis Center
08:33PM 39.8853 -83.1250 193° South 83 96 3,000  Level Indianapolis Center
08:33PM 39.8806 -83.1242 172° South 85 98 3,000  Level Indianapolis Center
08:34PM 39.8597 -83.1303 193° South 87 100 3,000  Level Indianapolis Center
08:34PM 39.8569 -83.1311 193° South 86 99 3,000  Level Indianapolis Center
08:35PM 39.8364 -83.1356 189° South 88 101 3,000  Level Indianapolis Center
08:35PM 39.8328 -83.1356 180° South 86 99 3,000  Level Indianapolis Center
08:36PM 39.8114 -83.1328 174° South 88 101 3,000  Level Indianapolis Center
08:36PM 39.8089 -83.1325 175° South 85 98 3,000 60 Level Indianapolis Center
08:37PM 39.7894 -83.1192 152° Southeast 87 100 3,100 60 Climbing Indianapolis Center
08:37PM 39.7872 -83.1167 139° Southeast 87 100 3,100  Level Indianapolis Center
08:38PM 39.7694 -83.1061 155° Southeast 85 98 3,100  Level Indianapolis Center
08:38PM 39.7661 -83.1017 134° Southeast 87 100 3,100 -240 Level Indianapolis Center
08:39PM 39.7494 -83.0903 152° Southeast 72 83 2,900 -420 Descending Indianapolis Center
08:39PM 39.7444 -83.0889 168° South 86 99 2,700 -720 Descending Indianapolis Center
08:40PM 39.7267 -83.0875 177° South 84 97 2,200 -420 Descending Indianapolis Center
08:40PM 39.7217 -83.0844 155° Southeast 83 96 2,300 480 Climbing Indianapolis Center
08:41PM 39.7072 -83.0664 136° Southeast 82 94 2,700 360 Climbing Indianapolis Center
08:41PM 39.7053 -83.0636 132° Southeast 81 93 2,700 -120 Level Indianapolis Center
08:42PM 39.6892 -83.0533 154° Southeast 71 82 2,600 -120 Descending Indianapolis Center
08:42PM 39.6872 -83.0517 147° Southeast 76 87 2,600 -120 Level Indianapolis Center
08:43PM 39.6708 -83.0458 165° South 75 86 2,500 -300 Descending Indianapolis Center
08:43PM 39.6672 -83.0422 142° Southeast 75 86 2,300 -720 Descending Indianapolis Center
08:44PM 39.6481 -83.0433 183° South 83 96 1,800 -600 Descending Indianapolis Center
08:44PM 39.6436 -83.0439 185° South 78 90 1,700 -300 Descending Indianapolis Center
08:45PM 39.6256 -83.0381 166° South 73 84 1,500 -180 Descending Indianapolis Center
08:46PM 39.6078 -83.0225 146° Southeast 71 82 1,400 -120 Descending Indianapolis Center
08:47PM 39.5944 -83.0019 130° Southeast 74 85 1,300  Descending Indianapolis Center
08:48PM 39.5736 -82.9994 175° South 77 89 1,400  Climbing Indianapolis Center
08:49PM 39.5542 -82.9939 168° South 73 84 1,300 -120 Descending Indianapolis Center
08:50PM 39.5392 -82.9847 155° Southeast 70 81 1,200  Descending Indianapolis Center
08:52PM 39.5804 -82.9907 354° North  Level FlightAware Approximate
08:54PM 39.4972 -82.9853 354° North 65 75 1,400  Level Indianapolis Center
08:55PM 39.4878 -83.0006 231° Southwest 72 83 2,000 660 Climbing Indianapolis Center
08:56PM 39.5053 -83.0186 321° Northwest 106 122 2,600 480 Climbing Indianapolis Center
08:57PM 39.5247 -83.0425 317° Northwest 101 116 3,000 180 Climbing Indianapolis Center
08:58PM 39.5478 -83.0697 318° Northwest 114 131 3,000  Level Indianapolis Center
08:58PM 39.5539 -83.0769 318° Northwest 105 121 3,000  Level Indianapolis Center
08:59PM 39.7794 -83.0199 354° North  Level FlightAware Approximate
08:59PM 39.5778 -83.0919 334° Northwest 126 145 3,000  Level Indianapolis Center
09:00PM 39.8078 -83.0241 354° North  Level FlightAware Approximate
09:00PM 39.6022 -83.1031 341° North 118 136 3,000  Level Indianapolis Center
09:00PM 39.6156 -83.1075 346° North 116 133 3,100 60 Climbing Indianapolis Center
09:01PM 39.6344 -83.1175 338° Northwest 119 137 3,100  Level Indianapolis Center
09:01PM 39.6464 -83.1242 337° Northwest 118 136 3,100 -120 Level Indianapolis Center
09:02PM 39.6647 -83.1347 336° Northwest 121 139 3,000  Descending Indianapolis Center
09:02PM 39.6769 -83.1431 332° Northwest 120 138 3,100 60 Climbing Indianapolis Center
09:03PM 39.6906 -83.1539 329° Northwest 118 136 3,100 -120 Level Indianapolis Center
09:03PM 39.7061 -83.1631 336° Northwest 119 137 3,000 -120 Descending Indianapolis Center
09:04PM 39.7211 -83.1683 345° North 118 136 3,000  Level Indianapolis Center
09:04PM 39.7378 -83.1750 343° North 118 136 3,000  Level Indianapolis Center
09:05PM 39.7536 -83.1803 346° North 117 135 3,000 60 Level Indianapolis Center
09:05PM 39.7694 -83.1867 343° North 117 135 3,100  Climbing Indianapolis Center
09:06PM 39.7864 -83.1922 346° North 119 137 3,000 -120 Descending Indianapolis Center
09:06PM 39.8022 -83.1997 340° North 120 138 3,000  Level Indianapolis Center
09:07PM 39.8189 -83.2069 342° North 121 139 3,000  Level Indianapolis Center
09:07PM 39.8347 -83.2144 340° North 122 140 3,000  Level Indianapolis Center
09:08PM 39.8492 -83.2242 333° Northwest 120 138 3,000  Level Indianapolis Center
09:08PM 39.8656 -83.2308 343° North 121 139 3,000  Level Indianapolis Center
09:09PM 39.8814 -83.2389 339° North 121 139 3,000  Level Indianapolis Center
09:09PM 39.8989 -83.2436 348° North 123 142 3,000  Level Indianapolis Center
09:10PM 39.9164 -83.2483 348° North 124 143 3,000  Level Indianapolis Center
09:10PM 39.9314 -83.2572 336° Northwest 122 140 3,000  Level Indianapolis Center
09:11PM 39.9461 -83.2708 325° Northwest 125 144 3,000  Level Indianapolis Center
09:11PM 39.9608 -83.2806 333° Northwest 123 142 3,000  Level Indianapolis Center
09:12PM 39.9761 -83.2908 333° Northwest 121 139 3,000  Level Indianapolis Center
09:12PM 39.9928 -83.2975 343° North 123 142 3,000  Level Indianapolis Center
09:13PM 40.0086 -83.3056 339° North 125 144 3,000  Level Indianapolis Center
09:13PM 40.0256 -83.3136 340° North 125 144 3,000  Level Indianapolis Center
09:14PM 40.0414 -83.3178 349° North 119 137 3,000  Level Indianapolis Center
09:14PM 40.0589 -83.3119 14° North 120 138 3,000 60 Level Indianapolis Center
09:15PM 40.0681 -83.2936 57° Northeast 103 119 3,100 60 Climbing Indianapolis Center
09:15PM 40.0708 -83.2783 77° East 109 125 3,100 -180 Level Indianapolis Center
09:16PM 40.0708 -83.2558 90° East 98 113 2,900 -300 Descending Indianapolis Center
09:16PM 40.0703 -83.2428 93° East 100 115 2,800 -240 Descending Indianapolis Center
09:17PM 40.0711 -83.2231 87° East 90 104 2,700 -120 Descending Indianapolis Center
09:17PM 40.0708 -83.2106 92° East 94 108 2,700  Level Indianapolis Center
09:18PM 40.0731 -83.1933 80° East 88 101 2,700 -300 Level Indianapolis Center
09:18PM 40.0733 -83.1781 89° East 90 104 2,400 -660 Descending Indianapolis Center
09:19PM 40.0717 -83.1525 95° East 95 109 2,000 -600 Descending Indianapolis Center
09:19PM 40.0736 -83.1447 72° East 90 104 1,800 -540 Descending Indianapolis Center
09:20PM 40.0764 -83.1175 82° East 105 121 1,500 -540 Descending Indianapolis Center
09:20PM 40.0756 -83.1067 96° East 97 112 1,300 -240 Descending Indianapolis Center
09:21PM 40.0769 -83.0650 87° East 99 114 1,200 -120 Descending Indianapolis Center
09:23PM 40.0798 -83.0732 172° South  Level Estimated